Time;durP1;ratioP1;P1;durP2;ratioP2;P2;SDS_P1;SDS_P2;PMS_P1;PMS_P2;Temp;Humidity;BMP_temperature;BMP_pressure;BME280_temperature;BME280_humidity;BME280_pressure;Samples;Min_cycle;Max_cycle;Signal;HPM_P1;HPM_P2
2022/01/22 00:00:08;;;;;;;3.63;1.70;;;;;;;0.99;76.01;102211.81;5055137;28;20017;-76
2022/01/22 00:02:34;;;;;;;2.22;1.45;;;;;;;0.97;75.89;102221.03;5068631;28;20035;-76
2022/01/22 00:05:00;;;;;;;2.22;1.20;;;;;;;0.95;76.09;102218.53;5064144;28;20381;-76
2022/01/22 00:07:26;;;;;;;2.08;1.50;;;;;;;0.95;76.59;102223.06;5071604;28;20017;-76
2022/01/22 00:09:57;;;;;;;3.70;1.38;;;;;;;0.95;76.15;102229.25;5051658;28;20031;-76
2022/01/22 00:12:43;;;;;;;2.70;1.67;;;;;;;0.94;75.76;102232.97;5072350;28;20028;-76
2022/01/22 00:15:12;;;;;;;2.38;1.40;;;;;;;0.95;76.03;102233.78;5069989;28;20048;-75
2022/01/22 00:17:37;;;;;;;3.08;1.35;;;;;;;0.94;76.36;102232.13;5064940;28;20029;-77
2022/01/22 00:20:04;;;;;;;3.85;1.45;;;;;;;0.94;76.40;102235.66;5055572;28;20050;-77
2022/01/22 00:22:32;;;;;;;5.75;1.75;;;;;;;0.95;76.07;102231.94;5093080;28;20101;-76
2022/01/22 00:25:00;;;;;;;2.60;1.38;;;;;;;0.96;76.43;102230.13;5093869;28;20024;-77
2022/01/22 00:27:26;;;;;;;4.93;1.42;;;;;;;0.97;76.51;102235.31;5056647;28;20012;-76
2022/01/22 00:29:52;;;;;;;3.10;1.42;;;;;;;1.00;75.97;102234.13;5082067;28;20110;-76
2022/01/22 00:32:17;;;;;;;2.05;1.40;;;;;;;1.02;76.12;102234.78;5074947;28;20024;-76
2022/01/22 00:34:43;;;;;;;2.47;1.38;;;;;;;1.04;76.66;102243.50;5072152;28;20028;-76
2022/01/22 00:37:08;;;;;;;6.07;1.55;;;;;;;1.07;76.07;102251.22;5059191;28;20020;-76
2022/01/22 00:39:34;;;;;;;2.28;1.00;;;;;;;1.08;75.65;102255.56;5074824;28;20032;-77
2022/01/22 00:42:04;;;;;;;3.35;1.17;;;;;;;1.12;76.12;102251.53;5089769;28;20365;-76
2022/01/22 00:44:29;;;;;;;3.13;1.30;;;;;;;1.16;76.31;102257.38;5092977;28;20059;-76
2022/01/22 00:46:54;;;;;;;1.95;1.20;;;;;;;1.18;76.24;102256.19;5075682;28;20055;-77
2022/01/22 00:49:20;;;;;;;2.25;1.30;;;;;;;1.21;75.86;102255.00;5088739;28;20077;-77
2022/01/22 00:51:45;;;;;;;2.78;1.20;;;;;;;1.23;75.68;102255.69;5092994;28;20028;-77
2022/01/22 00:54:11;;;;;;;2.50;0.93;;;;;;;1.23;76.41;102256.50;5092539;28;20077;-76
2022/01/22 00:56:36;;;;;;;3.10;1.13;;;;;;;1.25;75.65;102256.31;5093604;28;20020;-76
2022/01/22 00:59:02;;;;;;;2.78;1.40;;;;;;;1.27;75.67;102260.50;5074179;28;20024;-76
2022/01/22 01:01:28;;;;;;;2.40;1.25;;;;;;;1.29;75.97;102263.84;5093702;28;20491;-76
2022/01/22 01:03:57;;;;;;;3.88;1.30;;;;;;;1.29;75.56;102263.84;5091073;28;20036;-77
2022/01/22 01:06:22;;;;;;;2.85;1.00;;;;;;;1.29;75.49;102269.22;5091940;28;20102;-76
2022/01/22 01:08:47;;;;;;;2.25;1.10;;;;;;;1.29;75.46;102257.66;5092688;28;20467;-76
2022/01/22 01:11:14;;;;;;;3.97;1.40;;;;;;;1.31;75.67;102261.00;5092446;28;20076;-76
2022/01/22 01:13:44;;;;;;;2.08;1.13;;;;;;;1.31;75.49;102252.94;5072404;28;20035;-76
2022/01/22 01:16:27;;;;;;;3.65;1.58;;;;;;;1.31;75.72;102258.31;5091754;28;20047;-76
2022/01/22 01:33:13;;;;;;;1.77;1.00;;;;;;;1.31;74.67;102251.09;5091755;28;20035;-76
2022/01/22 01:35:26;;;;;;;2.90;1.30;;;;;;;1.31;75.26;102250.25;5079027;28;20047;-77
2022/01/22 01:37:54;;;;;;;1.98;1.10;;;;;;;1.29;75.30;102242.38;5092476;28;20489;-76
2022/01/22 01:40:21;;;;;;;3.85;1.00;;;;;;;1.29;74.50;102238.84;5090070;28;20035;-76
2022/01/22 01:42:53;;;;;;;3.00;1.65;;;;;;;1.29;74.92;102239.69;5064591;28;20028;-76
2022/01/22 01:45:18;;;;;;;1.92;1.00;;;;;;;1.30;75.07;102238.66;5075300;28;20024;-76
2022/01/22 01:47:47;;;;;;;2.55;1.15;;;;;;;1.31;74.79;102240.34;5092355;28;20070;-76
2022/01/22 01:50:13;;;;;;;2.65;1.50;;;;;;;1.34;74.67;102239.16;5065417;28;20108;-76
2022/01/22 01:52:47;;;;;;;2.47;1.20;;;;;;;1.37;75.00;102251.41;5064990;28;20020;-76
2022/01/22 01:55:18;;;;;;;2.25;1.30;;;;;;;1.36;74.71;102239.78;5089127;28;20063;-76
2022/01/22 01:57:43;;;;;;;1.83;1.10;;;;;;;1.38;74.80;102250.38;5092994;28;20024;-75
2022/01/22 02:00:23;;;;;;;2.58;0.90;;;;;;;1.38;74.93;102250.38;5090384;28;20388;-75
2022/01/22 02:02:48;;;;;;;1.00;0.63;;;;;;;1.37;74.34;102260.31;5057692;28;20498;-75
2022/01/22 02:05:16;;;;;;;1.13;0.80;;;;;;;1.35;74.76;102266.84;5088042;28;20024;-76
2022/01/22 02:07:42;;;;;;;3.45;0.82;;;;;;;1.32;74.05;102260.81;5073835;28;20039;-76
2022/01/22 02:10:09;;;;;;;1.35;0.70;;;;;;;1.32;73.93;102266.19;5073311;28;20024;-76
2022/01/22 02:13:38;;;;;;;1.88;0.73;;;;;;;1.32;74.31;102274.25;5091572;28;20423;-76
2022/01/22 02:23:47;;;;;;;2.53;0.70;;;;;;;1.35;73.75;102277.59;5062947;28;20124;-76
2022/01/22 02:26:13;;;;;;;1.13;0.55;;;;;;;1.32;73.96;102285.00;5078092;28;20024;-76
2022/01/22 02:28:39;;;;;;;2.55;0.68;;;;;;;1.31;73.73;102286.03;5058842;28;20054;-76
2022/01/22 02:31:59;;;;;;;1.88;0.80;;;;;;;1.27;74.09;102287.38;5072603;28;20028;-76
2022/01/22 02:34:20;;;;;;;3.08;0.73;;;;;;;1.21;73.94;102288.09;5067766;28;20048;-76
2022/01/22 02:36:59;;;;;;;2.28;0.77;;;;;;;1.17;73.68;102289.44;5095525;28;20111;-76
2022/01/22 02:39:57;;;;;;;2.67;0.80;;;;;;;1.17;74.05;102302.84;5095588;28;20081;-76
2022/01/22 02:42:29;;;;;;;1.88;0.88;;;;;;;1.16;73.70;102305.72;5074108;28;20024;-76
2022/01/22 02:44:55;;;;;;;1.48;0.88;;;;;;;1.17;73.47;102305.53;5077932;28;20038;-76
2022/01/22 02:47:20;;;;;;;2.90;1.23;;;;;;;1.18;73.71;102296.50;5096016;28;20020;-75
2022/01/22 02:49:46;;;;;;;2.22;0.80;;;;;;;1.17;73.50;102291.28;5077187;28;20415;-76
2022/01/22 02:52:12;;;;;;;1.45;1.15;;;;;;;1.13;73.60;102282.75;5096132;28;20024;-76
2022/01/22 02:54:37;;;;;;;1.52;0.73;;;;;;;1.12;73.51;102286.44;5083463;28;20082;-76
2022/01/22 02:57:03;;;;;;;2.42;0.88;;;;;;;1.13;73.69;102285.44;5094070;28;20035;-76
2022/01/22 02:59:29;;;;;;;1.50;0.70;;;;;;;1.09;73.56;102297.53;5087763;28;20544;-76
2022/01/22 03:01:54;;;;;;;3.17;0.70;;;;;;;1.04;73.43;102298.06;5077720;28;20039;-76
2022/01/22 03:04:19;;;;;;;1.88;0.77;;;;;;;1.02;73.10;102291.19;5075808;28;20024;-76
2022/01/22 03:06:47;;;;;;;1.77;0.98;;;;;;;1.00;73.46;102294.03;5095151;28;20070;-76
2022/01/22 03:09:15;;;;;;;2.03;0.90;;;;;;;1.01;73.09;102297.53;5094724;28;20026;-76
2022/01/22 03:22:23;;;;;;;1.70;0.60;;;;;;;1.05;72.91;102298.91;5095546;28;20052;-76
2022/01/22 03:27:33;;;;;;;1.42;0.70;;;;;;;1.08;73.03;102293.16;5095192;28;20059;-76
2022/01/22 03:29:59;;;;;;;1.98;0.70;;;;;;;1.06;72.87;102289.81;5093988;28;20476;-76
2022/01/22 03:32:40;;;;;;;1.48;0.80;;;;;;;1.04;72.71;102291.84;5095059;28;20039;-76
2022/01/22 03:35:24;;;;;;;2.13;0.70;;;;;;;1.00;73.53;102290.50;5094001;28;20024;-75
2022/01/22 03:37:52;;;;;;;2.00;1.10;;;;;;;0.95;73.03;102292.88;5094761;28;20046;-75
2022/01/22 03:40:22;;;;;;;1.15;0.60;;;;;;;0.87;73.33;102291.91;5091658;28;20051;-76
2022/01/22 03:42:48;;;;;;;1.42;0.75;;;;;;;0.82;73.19;102298.81;5094661;28;20080;-76
2022/01/22 03:45:14;;;;;;;1.05;0.68;;;;;;;0.79;73.06;102297.31;5066639;28;20039;-76
2022/01/22 03:47:40;;;;;;;3.65;1.08;;;;;;;0.76;72.87;102311.03;5068119;28;20024;-75
2022/01/22 03:50:06;;;;;;;2.17;0.75;;;;;;;0.73;73.21;102306.03;5076240;28;20077;-76
2022/01/22 03:52:32;;;;;;;1.73;0.82;;;;;;;0.72;72.75;102315.09;5094623;28;20028;-75
2022/01/22 03:54:57;;;;;;;1.52;0.70;;;;;;;0.74;72.96;102312.25;5094115;28;20391;-76
2022/01/22 03:57:24;;;;;;;1.42;0.60;;;;;;;0.76;72.89;102305.66;5095075;28;20020;-76
2022/01/22 03:59:50;;;;;;;2.08;0.98;;;;;;;0.76;73.35;102297.63;5094460;28;20477;-76
2022/01/22 04:05:20;;;;;;;2.72;0.80;;;;;;;0.73;72.90;102300.66;5031804;28;20057;-75
2022/01/22 04:10:14;;;;;;;2.03;0.85;;;;;;;0.72;73.33;102315.09;5060766;28;20044;-76
2022/01/22 04:12:50;;;;;;;0.88;0.52;;;;;;;0.74;72.93;102318.44;5093245;28;20028;-75
2022/01/22 04:15:19;;;;;;;1.52;0.93;;;;;;;0.75;72.68;102309.38;5093523;28;20481;-75
2022/01/22 04:25:42;;;;;;;3.55;1.13;;;;;;;0.75;72.71;102313.91;5078395;28;20446;-75
2022/01/22 04:28:08;;;;;;;1.25;0.70;;;;;;;0.76;72.69;102320.94;5093950;28;20020;-75
2022/01/22 04:30:33;;;;;;;1.55;0.90;;;;;;;0.75;73.39;102317.44;5092769;28;20051;-75
2022/01/22 04:33:00;;;;;;;1.40;0.82;;;;;;;0.77;72.55;102322.66;5087076;28;20051;-75
2022/01/22 04:35:26;;;;;;;0.93;0.60;;;;;;;0.79;73.30;102316.09;5075712;28;20028;-75
2022/01/22 04:37:51;;;;;;;2.83;0.90;;;;;;;0.79;72.95;102321.47;5093706;28;20024;-76
2022/01/22 04:40:17;;;;;;;2.83;1.67;;;;;;;0.79;72.91;102315.22;5074930;28;20090;-76
2022/01/22 04:42:43;;;;;;;1.48;0.70;;;;;;;0.82;72.94;102317.59;5074747;28;20028;-76
2022/01/22 04:55:33;;;;;;;1.65;0.85;;;;;;;0.94;71.92;102318.06;5092807;28;20032;-75
2022/01/22 04:57:58;;;;;;;1.33;0.73;;;;;;;0.95;71.93;102309.81;5075304;28;20028;-75
2022/01/22 05:00:23;;;;;;;2.90;0.70;;;;;;;0.99;72.19;102305.78;5090547;28;20096;-75
2022/01/22 05:02:50;;;;;;;2.60;0.98;;;;;;;0.98;72.08;102296.06;5091925;28;20036;-76
2022/01/22 05:05:16;;;;;;;1.92;0.77;;;;;;;0.98;71.89;102295.22;5055196;28;20040;-75
2022/01/22 05:07:42;;;;;;;2.35;0.65;;;;;;;0.97;71.96;102297.06;5072407;28;20023;-75
2022/01/22 05:10:08;;;;;;;1.25;0.70;;;;;;;0.98;71.48;102295.22;5075417;28;20035;-76
2022/01/22 05:12:34;;;;;;;1.80;0.82;;;;;;;0.96;71.80;102294.56;5093435;28;20038;-76
2022/01/22 05:14:59;;;;;;;2.90;1.02;;;;;;;0.97;72.20;102291.69;5092547;28;20107;-76
2022/01/22 05:17:26;;;;;;;1.15;0.70;;;;;;;0.96;72.01;102290.03;5080490;28;20093;-75
2022/01/22 05:20:03;;;;;;;1.73;0.90;;;;;;;0.97;71.16;102285.50;5073432;28;20028;-75
2022/01/22 05:24:54;;;;;;;2.83;0.98;;;;;;;0.95;71.52;102300.94;5074440;28;20040;-75
2022/01/22 05:37:41;;;;;;;1.77;0.70;;;;;;;0.93;71.40;102301.13;5093136;28;20081;-75
2022/01/22 05:40:07;;;;;;;5.82;1.33;;;;;;;0.93;71.29;102311.88;5092043;28;20028;-74
2022/01/22 05:42:32;;;;;;;1.75;0.65;;;;;;;0.91;71.37;102318.41;5074592;28;20032;-75
2022/01/22 05:44:58;;;;;;;2.95;0.93;;;;;;;0.89;71.31;102314.03;5089584;28;20028;-75
2022/01/22 05:47:26;;;;;;;2.03;0.80;;;;;;;0.91;71.06;102318.41;5092333;28;20056;-75
2022/01/22 05:49:53;;;;;;;1.85;0.80;;;;;;;0.91;71.29;102318.41;5092029;28;20035;-75
2022/01/22 05:52:27;;;;;;;1.83;0.80;;;;;;;0.89;71.24;102314.03;5092346;28;20142;-76
2022/01/22 06:00:11;;;;;;;3.88;1.10;;;;;;;0.94;70.97;102310.84;5088342;28;20106;-75
2022/01/22 06:02:36;;;;;;;1.70;0.57;;;;;;;0.90;71.40;102317.59;5077268;28;20028;-76
2022/01/22 06:05:02;;;;;;;1.70;0.80;;;;;;;0.88;71.07;102323.09;5095551;28;20032;-75
2022/01/22 06:07:27;;;;;;;0.95;0.60;;;;;;;0.87;71.14;102310.69;5062186;28;20020;-76
2022/01/22 06:14:58;;;;;;;1.77;1.00;;;;;;;0.84;71.34;102315.56;5078935;28;20428;-76
2022/01/22 06:17:23;;;;;;;2.78;0.80;;;;;;;0.80;71.85;102315.06;5090479;28;20058;-75
2022/01/22 06:19:49;;;;;;;4.75;1.13;;;;;;;0.73;71.30;102311.38;5095435;28;20020;-75
2022/01/22 06:22:14;;;;;;;2.00;0.82;;;;;;;0.71;71.21;102312.56;5096387;28;20052;-75
2022/01/22 06:24:39;;;;;;;1.75;0.85;;;;;;;0.72;71.36;102320.47;5074749;28;20029;-75
2022/01/22 06:27:05;;;;;;;0.60;0.50;;;;;;;0.71;71.60;102318.81;5085878;28;20399;-75
2022/01/22 06:29:30;;;;;;;2.15;0.90;;;;;;;0.68;71.55;102308.38;5065190;28;20032;-75
2022/01/22 06:31:56;;;;;;;2.50;0.70;;;;;;;0.65;71.54;102304.22;5095563;28;20024;-75
2022/01/22 06:34:21;;;;;;;3.28;0.70;;;;;;;0.62;71.13;102311.75;5077811;28;20028;-75
2022/01/22 06:36:46;;;;;;;1.10;0.80;;;;;;;0.60;71.39;102321.81;5076412;28;20028;-75
2022/01/22 06:39:14;;;;;;;2.53;0.80;;;;;;;0.60;70.74;102321.81;5096826;28;20109;-75
2022/01/22 06:41:45;;;;;;;1.85;0.63;;;;;;;0.62;71.23;102330.53;5076848;28;20081;-75
2022/01/22 06:44:21;;;;;;;1.47;0.57;;;;;;;0.61;71.30;102328.88;5096578;28;20020;-76
2022/01/22 06:46:48;;;;;;;2.50;0.88;;;;;;;0.62;70.57;102330.53;5076414;28;20532;-75
2022/01/22 06:49:14;;;;;;;1.63;0.70;;;;;;;0.64;70.69;102344.63;5077656;28;20105;-75
2022/01/22 06:51:39;;;;;;;3.00;0.98;;;;;;;0.66;70.74;102345.31;5076812;28;20035;-75
2022/01/22 06:54:05;;;;;;;1.55;0.50;;;;;;;0.67;70.55;102352.34;5096066;28;20489;-75
2022/01/22 06:56:31;;;;;;;3.10;0.63;;;;;;;0.68;70.90;102351.31;5095465;28;20032;-76
2022/01/22 06:58:57;;;;;;;0.95;0.50;;;;;;;0.69;70.90;102355.69;5076879;28;20036;-76
2022/01/22 07:01:22;;;;;;;1.30;0.70;;;;;;;0.72;70.61;102355.34;5094642;28;20020;-75
2022/01/22 07:03:48;;;;;;;0.93;0.55;;;;;;;0.72;70.63;102360.72;5078009;28;20085;-75
2022/01/22 07:06:13;;;;;;;1.92;0.55;;;;;;;0.72;70.44;102358.03;5095176;28;20036;-75
2022/01/22 07:08:38;;;;;;;3.00;0.80;;;;;;;0.74;70.23;102366.78;5096114;28;20034;-76
2022/01/22 07:11:04;;;;;;;1.75;0.70;;;;;;;0.74;69.89;102360.56;5075135;28;20458;-75
2022/01/22 07:13:30;;;;;;;2.80;0.50;;;;;;;0.76;70.14;102358.53;5077053;28;20035;-75
2022/01/22 07:15:55;;;;;;;1.70;0.65;;;;;;;0.77;69.73;102358.38;5094604;28;20027;-75
2022/01/22 07:18:21;;;;;;;2.63;0.60;;;;;;;0.81;69.94;102357.00;5095196;28;20032;-75
2022/01/22 07:20:49;;;;;;;2.78;0.82;;;;;;;0.81;69.65;102351.66;5094754;28;20047;-75
2022/01/22 07:23:32;;;;;;;2.30;0.50;;;;;;;0.82;69.65;102349.81;5095471;28;20028;-75
2022/01/22 07:25:57;;;;;;;2.47;0.60;;;;;;;0.84;69.54;102343.25;5078324;28;20028;-75
2022/01/22 07:28:22;;;;;;;1.00;0.63;;;;;;;0.87;69.51;102350.97;5077272;28;20580;-75
2022/01/22 07:30:48;;;;;;;1.48;0.57;;;;;;;0.92;69.40;102349.63;5086078;28;20020;-76
2022/01/22 07:33:14;;;;;;;2.38;0.90;;;;;;;0.94;69.55;102342.22;5095362;28;20024;-76
2022/01/22 07:35:39;;;;;;;1.45;0.60;;;;;;;0.95;69.24;102344.72;5058953;28;20024;-76
2022/01/22 07:38:05;;;;;;;2.70;0.93;;;;;;;0.99;68.96;102347.94;5095663;28;20445;-75
2022/01/22 07:40:30;;;;;;;1.10;0.50;;;;;;;1.02;69.01;102342.22;5093087;28;20032;-76
2022/01/22 07:42:56;;;;;;;4.65;0.93;;;;;;;1.05;69.06;102329.25;5076070;28;20023;-76
2022/01/22 07:45:21;;;;;;;1.40;0.90;;;;;;;1.06;69.05;102339.03;5076645;28;20031;-76
2022/01/22 07:47:46;;;;;;;3.90;0.80;;;;;;;1.10;69.30;102350.25;5077065;28;20488;-76
2022/01/22 07:50:12;;;;;;;6.43;0.95;;;;;;;1.16;69.21;102348.72;5091892;28;20069;-76
2022/01/22 07:52:37;;;;;;;1.73;0.52;;;;;;;1.18;69.73;102347.53;5085977;28;20380;-75
2022/01/22 07:55:03;;;;;;;5.07;0.82;;;;;;;1.21;68.87;102341.81;5074298;28;20032;-76
2022/01/22 07:57:29;;;;;;;1.40;0.70;;;;;;;1.22;69.09;102342.63;5093705;28;20028;-76
2022/01/22 07:59:54;;;;;;;2.78;0.90;;;;;;;1.25;69.42;102347.66;5074339;28;20023;-77
2022/01/22 08:02:19;;;;;;;2.15;1.15;;;;;;;1.28;69.41;102348.19;5075056;28;20465;-76
2022/01/22 08:04:45;;;;;;;2.45;0.70;;;;;;;1.30;69.23;102356.88;5091065;28;20027;-76
2022/01/22 08:07:11;;;;;;;3.58;0.70;;;;;;;1.32;69.34;102360.25;5092919;28;20020;-77
2022/01/22 08:09:37;;;;;;;1.90;0.65;;;;;;;1.33;69.84;102361.06;5094056;28;20107;-76
2022/01/22 08:12:02;;;;;;;1.52;0.80;;;;;;;1.33;69.04;102344.94;5091463;28;20047;-74
2022/01/22 08:14:28;;;;;;;3.33;1.00;;;;;;;1.31;69.48;102345.13;5075266;28;20465;-75
2022/01/22 08:16:53;;;;;;;1.30;0.70;;;;;;;1.31;70.07;102347.81;5073127;28;20468;-76
2022/01/22 08:19:19;;;;;;;2.40;0.90;;;;;;;1.33;69.41;102358.38;5075353;28;20024;-75
2022/01/22 08:21:45;;;;;;;1.67;0.70;;;;;;;1.34;69.70;102354.69;5090734;28;20043;-75
2022/01/22 08:24:11;;;;;;;1.25;0.73;;;;;;;1.32;69.64;102352.19;5088873;28;20329;-75
2022/01/22 08:26:42;;;;;;;3.38;0.95;;;;;;;1.32;69.73;102352.19;5092053;28;20134;-74
2022/01/22 08:29:07;;;;;;;2.38;0.80;;;;;;;1.33;70.28;102353.00;5070310;28;20024;-74
2022/01/22 08:36:44;;;;;;;2.00;0.75;;;;;;;1.38;70.10;102353.31;5088435;28;20149;-73
2022/01/22 08:39:10;;;;;;;3.13;1.10;;;;;;;1.41;70.29;102349.44;5091349;28;20405;-75
2022/01/22 08:41:35;;;;;;;2.55;1.02;;;;;;;1.43;70.46;102340.22;5086951;28;20071;-75
2022/01/22 08:44:00;;;;;;;2.80;1.10;;;;;;;1.45;70.98;102334.66;5080080;28;20020;-75
2022/01/22 08:46:27;;;;;;;2.45;1.13;;;;;;;1.46;70.75;102329.09;5089182;28;20015;-74
2022/01/22 08:48:52;;;;;;;4.45;1.30;;;;;;;1.51;70.88;102336.66;5092432;28;20446;-73
2022/01/22 08:51:18;;;;;;;1.48;0.93;;;;;;;1.57;70.45;102333.25;5073570;28;20118;-74
2022/01/22 08:53:43;;;;;;;3.83;1.58;;;;;;;1.64;71.12;102336.94;5091474;28;20068;-74
2022/01/22 08:56:09;;;;;;;4.35;0.80;;;;;;;1.70;70.60;102340.75;5073726;28;20373;-75
2022/01/22 08:58:35;;;;;;;1.80;0.80;;;;;;;1.74;70.73;102342.06;5091410;28;20020;-74
2022/01/22 09:01:00;;;;;;;4.13;1.10;;;;;;;1.77;71.39;102347.06;5092154;28;20099;-74
2022/01/22 09:03:26;;;;;;;2.35;0.98;;;;;;;1.85;70.98;102351.56;5075219;28;20027;-75
2022/01/22 09:05:51;;;;;;;2.90;0.95;;;;;;;1.88;70.68;102351.22;5089438;28;20039;-74
2022/01/22 09:08:17;;;;;;;2.35;1.05;;;;;;;1.94;70.63;102348.69;5068473;28;20032;-75
2022/01/22 09:10:42;;;;;;;5.57;1.33;;;;;;;1.99;70.76;102351.66;5090471;28;20078;-75
2022/01/22 09:13:09;;;;;;;1.13;0.82;;;;;;;2.03;71.09;102343.25;5093418;28;20427;-76
2022/01/22 09:15:34;;;;;;;1.67;1.02;;;;;;;2.07;71.40;102350.75;5074294;28;20035;-75
2022/01/22 09:17:59;;;;;;;3.50;0.95;;;;;;;2.14;71.32;102354.41;5090570;28;20028;-75
2022/01/22 09:23:02;;;;;;;8.23;1.77;;;;;;;2.23;70.59;102331.78;5090641;28;20020;-75
2022/01/22 09:25:28;;;;;;;2.33;1.27;;;;;;;2.24;70.95;102338.03;5092444;28;20405;-75
2022/01/22 09:27:53;;;;;;;2.28;0.90;;;;;;;2.24;70.78;102332.66;5093053;28;20088;-75
2022/01/22 09:30:19;;;;;;;3.80;1.33;;;;;;;2.22;71.07;102324.75;5091931;28;20034;-75
2022/01/22 09:32:44;;;;;;;3.95;1.10;;;;;;;2.26;71.52;102329.78;5068881;28;20020;-75
2022/01/22 09:35:09;;;;;;;2.60;0.70;;;;;;;2.35;71.33;102334.09;5090434;28;20033;-75
2022/01/22 09:37:35;;;;;;;2.40;0.60;;;;;;;2.47;71.62;102327.25;5086615;28;20028;-75
2022/01/22 09:40:00;;;;;;;0.75;0.43;;;;;;;2.58;70.59;102337.56;5090812;28;20034;-75
2022/01/22 09:42:26;;;;;;;1.30;0.40;;;;;;;2.67;70.36;102333.78;5082468;28;20035;-76
2022/01/22 09:44:51;;;;;;;0.52;0.52;;;;;;;2.75;69.58;102322.06;5088617;28;20021;-75
2022/01/22 09:47:18;;;;;;;2.42;0.60;;;;;;;2.80;69.14;102337.69;5091270;28;20016;-75
2022/01/22 09:49:45;;;;;;;2.35;0.40;;;;;;;2.84;69.21;102330.94;5073065;28;20492;-75
2022/01/22 09:52:10;;;;;;;3.03;0.80;;;;;;;2.86;68.90;102331.56;5055957;28;20028;-75
2022/01/22 09:54:36;;;;;;;2.42;0.70;;;;;;;2.87;69.37;102325.16;5088748;28;20039;-75
2022/01/22 09:57:04;;;;;;;0.85;0.55;;;;;;;2.87;68.94;102326.00;5090614;28;20396;-75
2022/01/22 09:59:29;;;;;;;2.47;1.40;;;;;;;2.89;69.10;102333.88;5091752;28;20024;-74
2022/01/22 10:02:15;;;;;;;1.77;0.88;;;;;;;2.86;69.00;102334.25;5085243;28;20035;-74
2022/01/22 10:04:45;;;;;;;2.58;1.30;;;;;;;2.89;68.84;102336.56;5048006;28;20032;-76
2022/01/22 10:07:18;;;;;;;4.28;1.85;;;;;;;2.89;69.00;102332.06;5091833;28;20102;-75
2022/01/22 10:10:00;;;;;;;0.52;0.50;;;;;;;2.89;68.61;102341.97;5079819;28;20042;-76
2022/01/22 10:12:27;;;;;;;3.03;0.82;;;;;;;2.88;68.79;102337.59;5077322;28;20108;-75
2022/01/22 10:15:18;;;;;;;4.95;0.80;;;;;;;2.89;69.73;102339.28;5075002;28;20034;-75
2022/01/22 10:17:54;;;;;;;1.52;0.68;;;;;;;2.91;69.31;102329.16;5080281;28;20499;-75
2022/01/22 10:20:28;;;;;;;0.60;0.50;;;;;;;2.93;69.70;102339.75;5092650;28;20027;-76
2022/01/22 10:22:59;;;;;;;1.05;1.00;;;;;;;2.97;69.43;102333.78;5092223;28;20032;-76
2022/01/22 10:25:42;;;;;;;1.00;0.50;;;;;;;2.98;69.30;102327.41;5093312;28;20073;-76
2022/01/22 10:28:10;;;;;;;5.85;0.70;;;;;;;3.06;70.13;102321.09;5089036;28;20060;-75
2022/01/22 10:30:38;;;;;;;3.17;0.90;;;;;;;3.07;69.82;102312.81;5058428;28;20062;-76
2022/01/22 10:35:53;;;;;;;4.85;0.65;;;;;;;3.13;70.03;102321.19;5079013;28;20449;-76
2022/01/22 10:38:19;;;;;;;1.38;0.70;;;;;;;3.18;70.39;102313.38;5088916;28;20104;-76
2022/01/22 10:40:45;;;;;;;2.00;0.82;;;;;;;3.25;70.25;102315.13;5089063;28;20353;-76
2022/01/22 10:43:34;;;;;;;1.73;0.75;;;;;;;3.33;70.11;102306.13;5071549;28;20039;-76
2022/01/22 10:46:10;;;;;;;0.70;0.40;;;;;;;3.37;70.33;102307.38;5072027;28;20384;-75
2022/01/22 10:48:38;;;;;;;2.38;0.47;;;;;;;3.41;70.58;102308.69;5095200;28;20028;-76
2022/01/22 10:51:09;;;;;;;1.52;0.65;;;;;;;3.44;70.34;102305.63;5068609;28;20107;-76
2022/01/22 10:53:51;;;;;;;4.40;0.47;;;;;;;3.51;70.38;102313.78;5095470;28;20481;-76
2022/01/22 10:56:19;;;;;;;6.38;0.70;;;;;;;3.59;70.43;102308.28;5094006;28;20496;-76
2022/01/22 10:58:57;;;;;;;1.27;0.50;;;;;;;3.69;70.72;102318.78;5091136;28;20479;-76
2022/01/22 11:01:25;;;;;;;1.63;0.60;;;;;;;3.69;70.06;102324.16;5084223;28;20032;-76
2022/01/22 11:04:01;;;;;;;1.65;0.73;;;;;;;3.74;70.67;102316.34;5096367;28;20050;-76
2022/01/22 11:06:27;;;;;;;2.40;0.68;;;;;;;3.75;70.41;102301.81;5081986;28;20032;-77
2022/01/22 11:08:53;;;;;;;4.82;1.33;;;;;;;3.74;70.67;102300.16;5093821;28;20110;-76
2022/01/22 11:11:19;;;;;;;2.28;0.70;;;;;;;3.71;70.86;102316.69;5075625;28;20024;-76
2022/01/22 11:13:44;;;;;;;1.63;0.60;;;;;;;3.69;70.61;102306.13;5077379;28;20157;-76
2022/01/22 11:16:10;;;;;;;4.10;0.73;;;;;;;3.73;70.76;102309.25;5094437;28;20024;-76
2022/01/22 11:18:35;;;;;;;3.70;0.65;;;;;;;3.77;71.24;102314.09;5094195;28;20377;-76
2022/01/22 11:21:00;;;;;;;1.25;0.60;;;;;;;3.81;71.46;102319.94;5079128;28;20044;-76
2022/01/22 11:23:27;;;;;;;1.88;0.80;;;;;;;3.84;71.44;102318.72;5077130;28;20380;-76
2022/01/22 11:25:52;;;;;;;5.72;1.52;;;;;;;3.91;71.58;102325.84;5076321;28;20039;-76
2022/01/22 11:28:19;;;;;;;1.10;0.45;;;;;;;3.98;71.36;102312.41;5093603;28;20357;-75
2022/01/22 11:30:45;;;;;;;4.15;0.68;;;;;;;4.01;71.39;102309.38;5060071;28;20097;-76
2022/01/22 11:33:13;;;;;;;1.90;0.60;;;;;;;4.03;71.54;102301.06;5077122;28;20428;-76
2022/01/22 11:35:49;;;;;;;2.38;1.00;;;;;;;4.03;71.48;102296.50;5060197;28;20638;-75
2022/01/22 11:38:42;;;;;;;2.70;0.65;;;;;;;4.03;71.57;102295.66;5077565;28;20109;-76
2022/01/22 11:41:13;;;;;;;;;;;;;;;4.07;71.62;102308.59;5084782;28;20119;-76
2022/01/22 11:46:34;;;;;;;4.00;0.50;;;;;;;4.11;71.71;102304.47;5087878;28;20028;-76
2022/01/22 11:49:08;;;;;;;3.20;0.70;;;;;;;4.15;71.73;102304.94;5095033;28;20034;-76
2022/01/22 11:51:35;;;;;;;5.90;1.05;;;;;;;4.15;72.23;102296.81;5085370;28;20036;-76
2022/01/22 11:54:00;;;;;;;4.82;1.02;;;;;;;4.15;72.51;102305.75;5074184;28;20035;-76
2022/01/22 11:56:40;;;;;;;2.17;0.73;;;;;;;4.16;72.84;102309.28;5090774;28;20027;-76
2022/01/22 11:59:11;;;;;;;3.10;0.70;;;;;;;4.12;73.17;102294.50;5073856;28;20020;-76
2022/01/22 12:01:52;;;;;;;4.03;1.10;;;;;;;4.03;73.26;102285.69;5086758;28;20032;-75
2022/01/22 12:04:18;;;;;;;2.67;0.93;;;;;;;4.03;73.39;102287.56;5084816;28;20077;-76
2022/01/22 12:07:01;;;;;;;3.63;0.85;;;;;;;4.03;73.63;102269.50;5091333;28;20028;-76
2022/01/22 12:09:40;;;;;;;4.28;0.80;;;;;;;4.03;73.94;102268.66;5090485;28;20095;-76
2022/01/22 12:15:16;;;;;;;4.97;0.90;;;;;;;4.03;74.12;102274.91;5083696;28;20456;-76
2022/01/22 12:18:02;;;;;;;0.63;0.38;;;;;;;4.02;74.66;102277.81;5073090;28;20370;-76
2022/01/22 12:23:32;;;;;;;2.53;1.00;;;;;;;3.97;75.33;102270.28;5093381;28;20039;-76
2022/01/22 12:25:59;;;;;;;1.27;0.65;;;;;;;3.97;75.71;102263.03;5084682;28;20042;-76
2022/01/22 12:28:41;;;;;;;4.97;1.00;;;;;;;3.97;76.43;102262.19;5091921;28;20521;-77
2022/01/22 12:31:10;;;;;;;3.30;0.85;;;;;;;3.98;76.65;102271.94;5092641;28;20028;-76
2022/01/22 12:33:38;;;;;;;1.83;0.73;;;;;;;3.97;76.99;102265.72;5091069;28;20035;-76
2022/01/22 12:36:05;;;;;;;4.38;1.00;;;;;;;4.00;77.51;102276.13;5072103;28;20024;-77
2022/01/22 12:41:46;;;;;;;5.93;0.80;;;;;;;4.03;77.60;102284.88;5091968;28;20020;-77
2022/01/22 12:44:33;;;;;;;3.13;0.77;;;;;;;4.05;77.71;102272.03;5088918;28;20024;-77
2022/01/22 12:47:11;;;;;;;1.75;0.60;;;;;;;4.06;77.75;102281.78;5072613;28;20116;-77
2022/01/22 12:49:37;;;;;;;1.67;0.50;;;;;;;4.05;78.01;102283.66;5075703;28;20031;-78
2022/01/22 12:52:17;;;;;;;10.80;0.80;;;;;;;4.06;77.92;102289.88;5052885;28;20430;-76
2022/01/22 12:54:46;;;;;;;1.10;0.47;;;;;;;4.05;78.41;102285.50;5093755;28;20024;-76
2022/01/22 12:57:13;;;;;;;3.97;0.63;;;;;;;3.98;79.08;102288.13;5092216;28;20035;-76
2022/01/22 12:59:52;;;;;;;4.53;1.38;;;;;;;3.97;79.70;102290.00;5058931;28;20093;-76
2022/01/22 13:02:18;;;;;;;4.07;0.68;;;;;;;3.97;79.76;102297.28;5091655;28;20027;-76
2022/01/22 13:04:58;;;;;;;5.25;1.42;;;;;;;3.95;80.41;102294.75;5074200;28;20019;-76
2022/01/22 13:07:25;;;;;;;3.95;0.70;;;;;;;3.93;80.84;102294.13;5073850;28;20103;-76
2022/01/22 13:09:55;;;;;;;3.05;1.05;;;;;;;3.91;81.27;102292.66;5072603;28;20380;-75
2022/01/22 13:12:20;;;;;;;5.68;1.40;;;;;;;3.87;81.96;102285.94;5090700;28;20055;-76
2022/01/22 13:14:45;;;;;;;3.45;0.80;;;;;;;3.87;82.25;102292.19;5074364;28;20035;-76
2022/01/22 13:17:12;;;;;;;2.20;0.63;;;;;;;3.87;83.17;102292.19;5087514;28;20024;-77
2022/01/22 13:19:39;;;;;;;2.25;0.80;;;;;;;3.84;83.26;102287.16;5087946;28;20024;-76
2022/01/22 13:22:04;;;;;;;5.07;1.08;;;;;;;3.81;83.36;102282.16;5090629;28;20113;-77
2022/01/22 13:24:30;;;;;;;3.70;1.00;;;;;;;3.81;83.96;102284.84;5055810;28;20481;-76